YSSY Airport Information

Runway Information
Runway 07 Length 8300 ft width 148 ft
Elevation 16 ft Threshold 0 ft Heading 74
Runway 25 Length 8300 ft Width 148 ft
Elevation 20 ft Threshold 324 ft Heading 254
Runway 16L Length 7999 ft width 148 ft
Elevation 16 ft Threshold 758 ft Heading 168
Runway 34R Length 7999 ft Width 148 ft
Elevation 13 ft Threshold 125 ft Heading 348
Runway 16R Length 12999 ft width 148 ft
Elevation 8 ft Threshold 279 ft Heading 168
Runway 34L Length 12999 ft Width 148 ft
Elevation 14 ft Threshold 0 ft Heading 348
Airport Frequencies
Type APP Name APP Frequency 135.1 MHZ
Type ATIS Name ATIS Frequency 126.25 MHZ
Type CLD Name CLNC DEL Frequency 133.8 MHZ
Type DEP Name DEP Frequency 123 MHZ
Type GND Name GND Frequency 121.7 MHZ
Type OPS Name RAAF AIR O Frequency 1123.5 MHZ
Type TWR Name TWR Frequency 120.5 MHZ
Airport Navaids
Type NDB Name Glenfield Frequency 428 KHZ
Type VOR-DME Name Sydney Frequency 112100 KHZ
Airport Weather Information & NOTAM
ADDS - METARS form results

(1450 UTC 20 April 2018)
Data provider http://aviationweather.gov/adds/metars/
 
METAR text: YSSY 201430Z 21009KT 9999 FEW009 SCT013 19/17 Q1021 NOSIG
Conditions at: YSSY (SYDNEY INTL AIRP, AU) observed 1430 UTC 20 April 2018
Temperature: 19.0°C (66°F)
Dewpoint: 17.0°C (63°F) [RH = 88%]
Pressure (altimeter): 30.15 inches Hg (1021.0 mb)
Winds: from the SSW (210 degrees) at 10 MPH (9 knots; 4.7 m/s)
Visibility: 6 or more miles (10+ km)
Ceiling: at least 12,000 feet AGL
Clouds: few clouds at 900 feet AGL
scattered clouds at 1300 feet AGL
Weather: no significant weather observed at this time

METAR text: YSSY 201400Z 21009KT 9999 FEW009 19/17 Q1021 NOSIG
Conditions at: YSSY (SYDNEY INTL AIRP, AU) observed 1400 UTC 20 April 2018
Temperature: 19.0°C (66°F)
Dewpoint: 17.0°C (63°F) [RH = 88%]
Pressure (altimeter): 30.15 inches Hg (1021.0 mb)
Winds: from the SSW (210 degrees) at 10 MPH (9 knots; 4.7 m/s)
Visibility: 6 or more miles (10+ km)
Ceiling: at least 12,000 feet AGL
Clouds: few clouds at 900 feet AGL
Weather: no significant weather observed at this time

Forecast for: YSSY (SYDNEY INTL AIRP, AU)
Text: TAF YSSY 201107Z 2012/2118 22008KT 9999 BKN018
Forecast period: 1200 UTC 20 April 2018 to 0000 UTC 21 April 2018
Forecast type: FROM: standard forecast or significant change
Winds: from the SW (220 degrees) at 9 MPH (8 knots; 4.2 m/s)
Visibility: 6 or more miles (10+ km)
Ceiling: 1800 feet AGL
Clouds: broken clouds at 1800 feet AGL
Weather: no significant weather forecast for this period
Forecast for: YSSY (SYDNEY INTL AIRP, AU)
Text: TAF YSSY 201107Z 2012/2118 22008KT 9999 BKN018
Forecast period: 1200 UTC 20 April 2018 to 0000 UTC 21 April 2018
Forecast type: FROM: standard forecast or significant change
Winds: from the SW (220 degrees) at 9 MPH (8 knots; 4.2 m/s)
Visibility: 6 or more miles (10+ km)
Ceiling: 1800 feet AGL
Clouds: broken clouds at 1800 feet AGL
Weather: no significant weather forecast for this period
Forecast for: YSSY (SYDNEY INTL AIRP, AU)
Text: TAF YSSY 201107Z 2012/2118 22008KT 9999 BKN018
Forecast period: 0000 to 1000 UTC 21 April 2018
Forecast type: FROM: standard forecast or significant change
Winds: from the SSE (150 degrees) at 12 MPH (10 knots; 5.2 m/s)
Visibility: 6 or more miles (10+ km)
Clouds: scattered clouds at 2500 feet AGL
Weather: no significant weather forecast for this period
Forecast for: YSSY (SYDNEY INTL AIRP, AU)
Text: TAF YSSY 201107Z 2012/2118 22008KT 9999 BKN018
Forecast period: 0000 to 1000 UTC 21 April 2018
Forecast type: FROM: standard forecast or significant change
Winds: from the SSE (150 degrees) at 12 MPH (10 knots; 5.2 m/s)
Visibility: 6 or more miles (10+ km)
Clouds: scattered clouds at 2500 feet AGL
Weather: no significant weather forecast for this period
Forecast for: YSSY (SYDNEY INTL AIRP, AU)
Text: TAF YSSY 201107Z 2012/2118 22008KT 9999 BKN018
Forecast period: 1000 to 1800 UTC 21 April 2018
Forecast type: FROM: standard forecast or significant change
Winds: from the SSE (150 degrees) at 6 MPH (5 knots; 2.6 m/s)
Visibility: 6 or more miles (10+ km)
Ceiling: 2500 feet AGL
Clouds: broken clouds at 2500 feet AGL
Weather: no significant weather forecast for this period
Forecast for: YSSY (SYDNEY INTL AIRP, AU)
Text: TAF YSSY 201107Z 2012/2118 22008KT 9999 BKN018
Forecast period: 1000 to 1800 UTC 21 April 2018
Forecast type: FROM: standard forecast or significant change
Winds: from the SSE (150 degrees) at 6 MPH (5 knots; 2.6 m/s)
Visibility: 6 or more miles (10+ km)
Ceiling: 2500 feet AGL
Clouds: broken clouds at 2500 feet AGL
Weather: no significant weather forecast for this period